createdAt,value
2023-04-26T00:00:09.910Z,26.29
2023-04-26T00:02:38.764Z,25.82
2023-04-26T00:05:08.649Z,26.44
2023-04-26T00:07:38.998Z,26.31
2023-04-26T00:10:08.498Z,26.46
2023-04-26T00:12:37.833Z,26.32
2023-04-26T00:15:06.774Z,26.00
2023-04-26T00:17:35.442Z,25.81
2023-04-26T00:20:05.789Z,26.16
2023-04-26T00:22:34.044Z,26.35
2023-04-26T00:25:02.983Z,25.88
2023-04-26T00:27:31.339Z,26.40
2023-04-26T00:29:59.810Z,25.37
2023-04-26T00:32:28.328Z,25.67
2023-04-26T00:34:56.669Z,26.07
2023-04-26T00:37:25.774Z,25.99
2023-04-26T00:39:54.185Z,26.29
2023-04-26T00:42:22.508Z,26.63
2023-04-26T00:44:51.294Z,26.74
2023-04-26T00:47:19.727Z,26.69
2023-04-26T00:49:48.559Z,26.60
2023-04-26T00:52:17.094Z,27.01
2023-04-26T00:54:46.014Z,27.13
2023-04-26T00:57:14.308Z,27.05
2023-04-26T00:59:42.784Z,27.08
2023-04-26T01:02:11.364Z,26.93
2023-04-26T01:04:40.978Z,26.54
2023-04-26T01:07:09.935Z,26.64
2023-04-26T01:09:38.258Z,26.72
2023-04-26T01:12:08.265Z,26.64
2023-04-26T01:14:39.862Z,26.44
2023-04-26T01:17:08.690Z,26.41
2023-04-26T01:19:38.336Z,26.65
2023-04-26T01:22:06.761Z,27.07
2023-04-26T01:24:37.016Z,27.36
2023-04-26T01:27:05.283Z,27.85
2023-04-26T01:29:33.579Z,28.04
2023-04-26T01:32:01.936Z,28.13
2023-04-26T01:34:30.277Z,27.94
2023-04-26T01:36:58.564Z,28.60
2023-04-26T01:39:26.821Z,28.49
2023-04-26T01:41:55.276Z,28.74
2023-04-26T01:44:23.721Z,28.91
2023-04-26T01:46:52.125Z,29.11
2023-04-26T01:49:20.380Z,29.63
2023-04-26T01:51:48.639Z,29.65
2023-04-26T01:54:17.287Z,29.83
2023-04-26T01:56:45.959Z,29.97
2023-04-26T01:59:14.271Z,29.99
2023-04-26T02:01:45.518Z,30.35
2023-04-26T02:04:13.912Z,30.53
2023-04-26T02:06:43.200Z,30.89
2023-04-26T02:09:11.469Z,31.31
2023-04-26T02:11:39.731Z,31.69
2023-04-26T02:14:08.150Z,31.58
2023-04-26T02:16:37.349Z,31.87
2023-04-26T02:19:06.179Z,31.72
2023-04-26T02:21:34.474Z,31.69
2023-04-26T02:24:02.726Z,31.96
2023-04-26T02:26:33.510Z,32.07
2023-04-26T02:29:01.903Z,32.00
2023-04-26T02:31:30.146Z,32.58
2023-04-26T02:33:58.405Z,32.53
2023-04-26T02:36:28.181Z,33.10
2023-04-26T02:38:56.669Z,32.80
2023-04-26T02:41:25.737Z,32.94
2023-04-26T02:43:54.099Z,33.13
2023-04-26T02:46:22.415Z,33.16
2023-04-26T02:48:51.130Z,33.51
2023-04-26T02:51:19.577Z,33.51
2023-04-26T02:53:48.106Z,33.73
2023-04-26T02:56:17.060Z,33.78
2023-04-26T02:58:45.724Z,34.04
2023-04-26T03:01:15.448Z,34.21
2023-04-26T03:03:43.810Z,34.29
2023-04-26T03:06:12.384Z,34.77
2023-04-26T03:08:40.643Z,35.22
2023-04-26T03:11:08.998Z,35.28
2023-04-26T03:13:37.459Z,35.25
2023-04-26T03:16:05.898Z,35.75
2023-04-26T03:18:34.210Z,35.79
2023-04-26T03:21:02.483Z,35.95
2023-04-26T03:23:30.778Z,36.03
2023-04-26T03:25:59.586Z,36.18
2023-04-26T03:28:27.905Z,36.33
2023-04-26T03:30:56.181Z,36.42
2023-04-26T03:33:24.517Z,36.66
2023-04-26T03:35:52.822Z,36.74
2023-04-26T03:38:21.176Z,37.47
2023-04-26T03:40:49.444Z,37.84
2023-04-26T03:43:17.776Z,37.95
2023-04-26T03:45:50.349Z,37.79
2023-04-26T03:48:18.771Z,38.23
2023-04-26T03:50:47.502Z,38.28
2023-04-26T03:53:15.735Z,38.59
2023-04-26T03:55:43.974Z,38.76
2023-04-26T03:58:12.327Z,38.87
2023-04-26T04:00:42.156Z,39.27
2023-04-26T04:03:11.136Z,39.53
2023-04-26T04:05:39.782Z,39.49
2023-04-26T04:08:08.149Z,39.70
2023-04-26T04:10:37.908Z,39.67
2023-04-26T04:13:06.186Z,39.62
2023-04-26T04:15:34.465Z,39.67
2023-04-26T04:18:02.810Z,39.62
2023-04-26T04:20:31.176Z,39.60
2023-04-26T04:23:05.207Z,39.47
2023-04-26T04:25:34.181Z,39.81
2023-04-26T04:28:03.686Z,39.68
2023-04-26T04:30:32.878Z,39.98
2023-04-26T04:33:01.321Z,39.57
2023-04-26T04:35:34.425Z,39.79
2023-04-26T04:38:04.335Z,39.83
2023-04-26T04:40:33.010Z,40.06
2023-04-26T04:43:04.177Z,40.29
2023-04-26T04:45:32.401Z,40.47
2023-04-26T04:48:00.770Z,40.57
2023-04-26T04:50:29.080Z,40.82
2023-04-26T04:52:57.339Z,41.13
2023-04-26T04:55:25.624Z,41.41
2023-04-26T04:57:54.328Z,41.53
2023-04-26T05:00:22.955Z,41.83
2023-04-26T05:02:51.343Z,42.10
2023-04-26T05:05:19.781Z,42.46
2023-04-26T05:07:48.437Z,42.73
2023-04-26T05:10:17.196Z,42.70
2023-04-26T05:12:45.898Z,42.79
2023-04-26T05:15:14.366Z,43.20
2023-04-26T05:17:43.740Z,43.36
2023-04-26T05:20:12.319Z,43.27
2023-04-26T05:22:40.806Z,43.46
2023-04-26T05:25:10.005Z,43.61
2023-04-26T05:27:41.230Z,43.87
2023-04-26T05:30:10.066Z,43.80
2023-04-26T05:32:38.393Z,43.81
2023-04-26T05:35:06.993Z,43.97
2023-04-26T05:37:35.428Z,44.15
2023-04-26T05:40:05.494Z,44.33
2023-04-26T05:42:33.804Z,44.53
2023-04-26T05:45:02.263Z,44.69
2023-04-26T05:47:30.581Z,45.01
2023-04-26T05:49:59.075Z,45.10
2023-04-26T05:52:27.611Z,45.34
2023-04-26T05:54:55.871Z,45.63
2023-04-26T05:57:24.202Z,45.47
2023-04-26T05:59:52.523Z,45.87
2023-04-26T06:02:20.930Z,45.95
2023-04-26T06:04:49.569Z,46.31
2023-04-26T06:07:18.279Z,46.07
2023-04-26T06:09:47.172Z,46.71
2023-04-26T06:12:15.444Z,46.72
2023-04-26T06:14:43.738Z,46.91
2023-04-26T06:17:12.107Z,46.99
2023-04-26T06:19:40.414Z,47.15
2023-04-26T06:22:08.650Z,47.30
2023-04-26T06:24:36.869Z,47.50
2023-04-26T06:27:05.181Z,47.72
2023-04-26T06:29:36.470Z,47.84
2023-04-26T06:32:04.789Z,48.38
2023-04-26T06:34:33.024Z,48.18
2023-04-26T06:37:01.364Z,48.31
2023-04-26T06:39:29.670Z,48.53
2023-04-26T06:41:57.896Z,48.68
2023-04-26T06:44:26.163Z,48.70
2023-04-26T06:46:57.633Z,48.65
2023-04-26T06:49:26.549Z,49.05
2023-04-26T06:51:54.847Z,49.14
2023-04-26T06:54:23.095Z,49.29
2023-04-26T06:56:51.355Z,49.68
2023-04-26T06:59:19.606Z,49.88
2023-04-26T07:01:48.336Z,49.96
2023-04-26T07:04:18.314Z,49.98
2023-04-26T07:06:47.476Z,50.20
2023-04-26T07:09:15.881Z,50.48
2023-04-26T07:11:47.089Z,50.55
2023-04-26T07:14:15.371Z,50.66
2023-04-26T07:16:44.277Z,51.10
2023-04-26T07:19:12.909Z,50.98
2023-04-26T07:21:41.188Z,51.31
2023-04-26T07:24:09.605Z,51.49
2023-04-26T07:26:37.989Z,51.61
2023-04-26T07:29:06.384Z,51.76
2023-04-26T07:31:34.820Z,52.12
2023-04-26T07:34:03.064Z,52.35
2023-04-26T07:36:32.415Z,52.19
2023-04-26T07:39:00.653Z,52.36
2023-04-26T07:41:28.991Z,52.58
2023-04-26T07:43:57.213Z,52.60
2023-04-26T07:46:25.536Z,52.90
2023-04-26T07:48:53.817Z,53.22
2023-04-26T07:51:22.107Z,53.56
2023-04-26T07:53:50.885Z,53.48
2023-04-26T07:56:19.580Z,53.45
2023-04-26T07:58:48.145Z,53.63
2023-04-26T08:01:16.954Z,53.80
2023-04-26T08:03:46.002Z,53.75
2023-04-26T08:06:14.569Z,54.21
2023-04-26T08:08:46.218Z,54.37
2023-04-26T08:11:14.485Z,54.16
2023-04-26T08:13:44.828Z,54.68
2023-04-26T08:16:13.442Z,54.69
2023-04-26T08:18:42.794Z,54.55
2023-04-26T08:21:12.334Z,54.81
2023-04-26T08:23:40.771Z,55.14
2023-04-26T08:26:09.376Z,55.18
2023-04-26T08:28:37.689Z,55.18
2023-04-26T08:31:06.345Z,55.21
2023-04-26T08:33:34.601Z,55.34
2023-04-26T08:36:03.040Z,55.67
2023-04-26T08:38:31.750Z,55.70
2023-04-26T08:41:03.543Z,55.64
2023-04-26T08:43:31.854Z,56.01
2023-04-26T08:46:02.283Z,56.17
2023-04-26T08:48:35.472Z,56.05
2023-04-26T08:51:04.707Z,56.45
2023-04-26T08:53:37.328Z,56.51
2023-04-26T08:56:06.457Z,56.81
2023-04-26T08:58:34.902Z,57.04
2023-04-26T09:01:04.988Z,56.92
2023-04-26T09:03:34.794Z,56.93
2023-04-26T09:06:06.685Z,57.02
2023-04-26T09:08:42.289Z,57.25
2023-04-26T09:11:10.570Z,57.24
2023-04-26T09:13:38.908Z,57.95
2023-04-26T09:16:07.518Z,57.95
2023-04-26T09:18:35.782Z,57.89
2023-04-26T09:21:08.545Z,57.80
2023-04-26T09:23:37.505Z,58.16
2023-04-26T09:26:22.579Z,58.54
2023-04-26T09:28:51.692Z,58.63
2023-04-26T09:31:41.561Z,58.71
2023-04-26T09:34:11.770Z,58.91
2023-04-26T09:36:57.835Z,59.03
2023-04-26T09:39:41.239Z,59.31
2023-04-26T09:42:12.327Z,59.29
2023-04-26T09:44:40.576Z,59.33
2023-04-26T09:47:11.044Z,59.55
2023-04-26T09:49:45.916Z,59.59
2023-04-26T09:52:14.384Z,59.80
2023-04-26T09:54:50.620Z,59.58
2023-04-26T09:57:20.569Z,59.93
2023-04-26T09:59:52.187Z,59.93
2023-04-26T10:02:24.401Z,60.33
2023-04-26T10:04:55.558Z,60.56
2023-04-26T10:07:25.845Z,60.54
2023-04-26T10:09:55.847Z,60.10
2023-04-26T10:12:24.295Z,60.11
2023-04-26T10:14:52.648Z,60.63
2023-04-26T10:17:23.990Z,60.22
2023-04-26T10:19:58.106Z,60.53
2023-04-26T10:22:29.919Z,60.76
2023-04-26T10:24:58.211Z,60.88
2023-04-26T10:27:50.022Z,61.18
2023-04-26T10:30:23.851Z,60.95
2023-04-26T10:32:58.438Z,60.85
2023-04-26T10:35:27.452Z,61.18
2023-04-26T10:38:04.588Z,61.18
2023-04-26T10:40:40.454Z,61.42
2023-04-26T10:43:11.569Z,61.20
2023-04-26T10:45:40.998Z,61.07
2023-04-26T10:48:31.881Z,61.57
2023-04-26T10:51:03.160Z,61.45
2023-04-26T10:53:45.320Z,61.45
2023-04-26T10:56:25.791Z,62.01
2023-04-26T11:01:41.887Z,61.78
2023-04-26T11:04:12.235Z,61.87
2023-04-26T11:06:54.357Z,62.40
2023-04-26T11:09:49.415Z,62.71
2023-04-26T11:12:18.207Z,62.13
2023-04-26T11:14:47.598Z,62.36
2023-04-26T11:17:15.873Z,62.14
2023-04-26T11:19:44.210Z,62.11
2023-04-26T11:22:12.763Z,62.11
2023-04-26T11:24:41.043Z,62.34
2023-04-26T11:27:13.050Z,62.25
2023-04-26T11:29:41.349Z,62.28
2023-04-26T11:32:10.015Z,62.41
2023-04-26T11:34:40.071Z,62.21
2023-04-26T11:37:09.078Z,62.43
2023-04-26T11:39:38.122Z,62.35
2023-04-26T11:42:10.666Z,62.30
2023-04-26T11:44:40.068Z,62.74
2023-04-26T11:47:09.160Z,62.69
2023-04-26T11:49:39.001Z,62.46
2023-04-26T11:52:10.027Z,62.76
2023-04-26T11:54:41.598Z,62.77
2023-04-26T11:57:19.855Z,62.66
2023-04-26T11:59:48.551Z,62.68
2023-04-26T12:02:16.859Z,63.21
2023-04-26T12:04:45.968Z,62.61
2023-04-26T12:07:19.602Z,62.91
2023-04-26T12:09:48.278Z,62.78
2023-04-26T12:12:16.549Z,63.27
2023-04-26T12:14:46.308Z,63.19
2023-04-26T12:17:16.819Z,63.06
2023-04-26T12:19:45.901Z,63.11
2023-04-26T12:22:21.338Z,63.31
2023-04-26T12:24:49.749Z,63.16
2023-04-26T12:27:24.005Z,63.14
2023-04-26T12:29:52.418Z,63.33
2023-04-26T12:32:22.553Z,63.42
2023-04-26T12:34:52.106Z,63.36
2023-04-26T12:37:20.413Z,63.04
2023-04-26T12:39:48.853Z,63.35
2023-04-26T12:42:17.703Z,63.27
2023-04-26T12:44:46.125Z,63.10
2023-04-26T12:47:14.659Z,62.98
2023-04-26T12:49:42.927Z,63.29
2023-04-26T12:52:11.370Z,63.62
2023-04-26T12:54:39.658Z,63.33
2023-04-26T12:57:07.923Z,63.44
2023-04-26T12:59:37.046Z,63.31
2023-04-26T13:02:05.346Z,63.39
2023-04-26T13:04:34.067Z,63.15
2023-04-26T13:07:02.670Z,63.37
2023-04-26T13:09:30.950Z,63.66
2023-04-26T13:11:59.191Z,63.81
2023-04-26T13:14:27.643Z,63.56
2023-04-26T13:16:56.467Z,63.86
2023-04-26T13:19:24.718Z,63.71
2023-04-26T13:21:53.900Z,63.99
2023-04-26T13:24:22.427Z,64.05
2023-04-26T13:26:50.667Z,64.06
2023-04-26T13:29:18.949Z,63.83
2023-04-26T13:31:47.677Z,63.86
2023-04-26T13:34:16.017Z,64.00
2023-04-26T13:36:44.328Z,63.92
2023-04-26T13:39:12.577Z,64.28
2023-04-26T13:41:40.945Z,64.12
2023-04-26T13:44:09.327Z,64.30
2023-04-26T13:46:37.758Z,64.29
2023-04-26T13:49:06.414Z,64.07
2023-04-26T13:51:35.668Z,63.92
2023-04-26T13:54:04.746Z,63.96
2023-04-26T13:56:34.349Z,64.21
2023-04-26T13:59:04.440Z,64.05
2023-04-26T14:01:35.675Z,64.22
2023-04-26T14:04:05.452Z,64.23
2023-04-26T14:06:35.092Z,63.88
2023-04-26T14:09:06.350Z,63.99
2023-04-26T14:11:34.611Z,63.89
2023-04-26T14:14:02.916Z,63.93
2023-04-26T14:16:31.341Z,63.94
2023-04-26T14:18:59.641Z,64.01
2023-04-26T14:21:27.856Z,64.29
2023-04-26T14:23:57.324Z,64.08
2023-04-26T14:26:28.747Z,64.19
2023-04-26T14:28:57.014Z,64.04
2023-04-26T14:31:27.043Z,64.38
2023-04-26T14:33:55.847Z,64.42
2023-04-26T14:36:24.119Z,64.37
2023-04-26T14:38:52.334Z,64.23
2023-04-26T14:41:21.142Z,64.17
2023-04-26T14:43:49.795Z,64.55
2023-04-26T14:46:18.421Z,64.11
2023-04-26T14:48:47.509Z,64.06
2023-04-26T14:51:15.862Z,64.20
2023-04-26T14:53:44.280Z,64.20
2023-04-26T14:56:12.513Z,64.14
2023-04-26T14:58:40.881Z,64.32
2023-04-26T15:01:09.318Z,63.89
2023-04-26T15:03:37.778Z,64.10
2023-04-26T15:06:06.421Z,63.62
2023-04-26T15:08:34.913Z,63.83
2023-04-26T15:11:04.379Z,63.79
2023-04-26T15:13:32.638Z,63.66
2023-04-26T15:16:07.799Z,63.87
2023-04-26T15:18:36.519Z,63.70
2023-04-26T15:21:05.069Z,63.62
2023-04-26T15:23:33.851Z,63.24
2023-04-26T15:26:05.481Z,62.86
2023-04-26T15:28:34.279Z,62.70
2023-04-26T15:31:10.391Z,62.77
2023-04-26T15:33:38.977Z,62.77
2023-04-26T15:36:07.766Z,62.51
2023-04-26T15:38:36.965Z,62.37
2023-04-26T15:41:05.411Z,62.06
2023-04-26T15:43:34.376Z,61.85
2023-04-26T15:46:02.668Z,61.61
2023-04-26T15:48:30.972Z,61.22
2023-04-26T15:50:59.295Z,61.24
2023-04-26T15:53:27.878Z,61.17
2023-04-26T15:55:56.257Z,60.89
2023-04-26T15:58:24.643Z,60.71
2023-04-26T16:00:53.424Z,60.46
2023-04-26T16:03:22.478Z,60.35
2023-04-26T16:05:51.014Z,59.89
2023-04-26T16:08:38.821Z,59.92
2023-04-26T16:11:08.006Z,59.78
2023-04-26T16:13:36.265Z,59.47
2023-04-26T16:16:09.169Z,59.15
2023-04-26T16:18:40.436Z,58.90
2023-04-26T16:21:10.419Z,58.63
2023-04-26T16:23:39.154Z,58.60
2023-04-26T16:26:07.727Z,58.60
2023-04-26T16:28:36.143Z,58.54
2023-04-26T16:31:04.810Z,58.71
2023-04-26T16:33:33.210Z,58.14
2023-04-26T16:36:01.507Z,57.82
2023-04-26T16:38:29.795Z,58.11
2023-04-26T16:40:59.334Z,58.02
2023-04-26T16:43:28.053Z,57.57
2023-04-26T16:46:03.991Z,57.67
2023-04-26T16:48:33.699Z,57.64
2023-04-26T16:51:04.868Z,57.17
2023-04-26T16:53:34.770Z,57.35
2023-04-26T16:56:03.133Z,56.79
2023-04-26T16:58:31.528Z,56.66
2023-04-26T17:00:59.882Z,56.63
2023-04-26T17:03:29.372Z,56.17
2023-04-26T17:05:57.791Z,56.15
2023-04-26T17:08:26.240Z,55.62
2023-04-26T17:10:54.507Z,55.23
2023-04-26T17:13:22.757Z,55.37
2023-04-26T17:15:52.074Z,55.37
2023-04-26T17:18:20.370Z,55.20
2023-04-26T17:20:53.705Z,54.41
2023-04-26T17:23:22.013Z,54.13
2023-04-26T17:25:50.584Z,53.92
2023-04-26T17:28:19.019Z,53.58
2023-04-26T17:30:47.565Z,53.62
2023-04-26T17:33:15.805Z,53.15
2023-04-26T17:35:44.035Z,53.01
2023-04-26T17:38:12.352Z,52.93
2023-04-26T17:40:40.660Z,52.56
2023-04-26T17:43:08.995Z,52.68
2023-04-26T17:45:37.325Z,52.56
2023-04-26T17:48:06.257Z,51.99
2023-04-26T17:50:35.937Z,51.15
2023-04-26T17:53:06.178Z,51.49
2023-04-26T17:55:36.079Z,51.37
2023-04-26T17:58:05.550Z,51.30
2023-04-26T18:00:34.960Z,51.04
2023-04-26T18:03:06.456Z,50.82
2023-04-26T18:05:36.120Z,50.70
2023-04-26T18:08:08.421Z,50.49
2023-04-26T18:10:38.169Z,50.21
2023-04-26T18:13:08.517Z,50.63
2023-04-26T18:15:38.173Z,50.14
2023-04-26T18:18:09.756Z,49.77
2023-04-26T18:20:39.423Z,49.63
2023-04-26T18:23:08.872Z,49.31
2023-04-26T18:25:38.272Z,49.35
2023-04-26T18:28:10.241Z,49.06
2023-04-26T18:30:40.105Z,48.84
2023-04-26T18:33:09.923Z,48.62
2023-04-26T18:35:39.548Z,48.50
2023-04-26T18:38:09.255Z,48.25
2023-04-26T18:40:38.506Z,47.51
2023-04-26T18:43:08.149Z,47.28
2023-04-26T18:45:37.468Z,47.44
2023-04-26T18:48:08.160Z,47.33
2023-04-26T18:50:37.802Z,47.02
2023-04-26T18:53:07.204Z,46.79
2023-04-26T18:55:36.899Z,46.41
2023-04-26T18:58:06.454Z,45.74
2023-04-26T19:00:35.886Z,45.54
2023-04-26T19:03:05.902Z,45.50
2023-04-26T19:05:35.724Z,44.47
2023-04-26T19:08:05.490Z,44.35
2023-04-26T19:10:34.936Z,44.40
2023-04-26T19:13:04.749Z,44.34
2023-04-26T19:15:34.459Z,43.12
2023-04-26T19:18:03.990Z,42.83
2023-04-26T19:20:33.679Z,42.53
2023-04-26T19:23:03.739Z,42.31
2023-04-26T19:25:33.204Z,42.50
2023-04-26T19:28:02.605Z,42.36
2023-04-26T19:30:32.068Z,42.40
2023-04-26T19:33:01.528Z,42.26
2023-04-26T19:35:31.305Z,42.05
2023-04-26T19:38:00.486Z,41.75
2023-04-26T19:40:29.973Z,41.55
2023-04-26T19:42:59.692Z,40.74
2023-04-26T19:45:30.963Z,40.78
2023-04-26T19:48:00.768Z,40.41
2023-04-26T19:50:30.771Z,39.76
2023-04-26T19:53:00.284Z,38.69
2023-04-26T19:55:30.930Z,38.46
2023-04-26T19:58:00.734Z,37.79
2023-04-26T20:00:31.829Z,38.17
2023-04-26T20:03:00.960Z,38.52
2023-04-26T20:05:30.327Z,37.23
2023-04-26T20:07:59.779Z,36.69
2023-04-26T20:10:32.474Z,36.32
2023-04-26T20:13:02.806Z,35.76
2023-04-26T20:15:33.512Z,35.03
2023-04-26T20:18:03.598Z,33.93
2023-04-26T20:20:33.362Z,33.92
2023-04-26T20:23:04.741Z,33.62
2023-04-26T20:25:34.118Z,32.70
2023-04-26T20:28:05.428Z,31.77
2023-04-26T20:30:35.259Z,31.89
2023-04-26T20:33:05.187Z,31.24
2023-04-26T20:35:34.474Z,31.60
2023-04-26T20:38:04.876Z,30.83
2023-04-26T20:40:34.620Z,29.74
2023-04-26T20:43:04.052Z,28.91
2023-04-26T20:45:33.523Z,28.07
2023-04-26T20:48:02.729Z,28.43
2023-04-26T20:50:32.716Z,28.07
2023-04-26T20:53:03.087Z,27.72
2023-04-26T20:55:33.768Z,27.09
2023-04-26T20:58:02.441Z,26.45
2023-04-26T21:00:30.720Z,25.73
2023-04-26T21:02:59.080Z,25.58
2023-04-26T21:05:27.641Z,25.50
2023-04-26T21:07:55.873Z,25.60
2023-04-26T21:10:24.097Z,25.48
2023-04-26T21:12:52.759Z,25.80
2023-04-26T21:15:21.008Z,25.71
2023-04-26T21:17:49.244Z,25.47
2023-04-26T21:20:17.589Z,25.43
2023-04-26T21:22:46.693Z,25.53
2023-04-26T21:25:17.893Z,25.28
2023-04-26T21:27:46.819Z,25.40
2023-04-26T21:30:15.401Z,25.50
2023-04-26T21:32:43.936Z,25.28
2023-04-26T21:35:12.457Z,25.19
2023-04-26T21:37:40.705Z,25.68
2023-04-26T21:40:09.650Z,25.98
2023-04-26T21:42:37.922Z,25.95
2023-04-26T21:45:06.833Z,25.94
2023-04-26T21:47:35.158Z,25.17
2023-04-26T21:50:03.780Z,25.11
2023-04-26T21:52:32.603Z,25.30
2023-04-26T21:55:01.066Z,25.36
2023-04-26T21:57:29.407Z,24.29
2023-04-26T21:59:57.733Z,23.88
2023-04-26T22:02:26.319Z,23.60
2023-04-26T22:04:56.687Z,23.31
2023-04-26T22:07:25.018Z,22.29
2023-04-26T22:09:53.272Z,22.90
2023-04-26T22:12:21.573Z,22.42
2023-04-26T22:14:49.984Z,22.21
2023-04-26T22:17:18.268Z,22.22
2023-04-26T22:19:46.937Z,21.85
2023-04-26T22:22:15.225Z,21.34
2023-04-26T22:24:43.615Z,21.54
2023-04-26T22:27:12.724Z,21.01
2023-04-26T22:29:41.001Z,21.66
2023-04-26T22:32:09.495Z,21.80
2023-04-26T22:34:37.828Z,21.75
2023-04-26T22:37:19.674Z,21.63
2023-04-26T22:39:48.946Z,21.65
2023-04-26T22:42:17.473Z,21.26
2023-04-26T22:44:45.991Z,21.37
2023-04-26T22:47:14.293Z,20.66
2023-04-26T22:49:42.611Z,21.00
2023-04-26T22:52:20.157Z,21.14
2023-04-26T22:54:56.486Z,21.05
2023-04-26T22:57:24.769Z,20.62
2023-04-26T22:59:53.160Z,20.75
2023-04-26T23:02:21.815Z,21.20
2023-04-26T23:04:50.246Z,20.86
2023-04-26T23:07:18.646Z,20.91
2023-04-26T23:09:47.351Z,21.57
2023-04-26T23:12:22.509Z,21.82
2023-04-26T23:14:51.477Z,21.80
2023-04-26T23:17:21.251Z,21.95
2023-04-26T23:19:49.488Z,22.22
2023-04-26T23:22:17.760Z,21.19
2023-04-26T23:24:46.369Z,21.88
2023-04-26T23:27:14.677Z,21.53
2023-04-26T23:29:42.952Z,21.67
2023-04-26T23:32:11.285Z,21.70
2023-04-26T23:34:39.776Z,21.88
2023-04-26T23:37:08.356Z,21.61
2023-04-26T23:39:37.130Z,21.26
2023-04-26T23:42:05.536Z,21.17
2023-04-26T23:44:33.828Z,20.42
2023-04-26T23:47:02.145Z,20.40
2023-04-26T23:49:30.632Z,21.21
2023-04-26T23:51:58.925Z,20.92
2023-04-26T23:54:27.596Z,21.16
2023-04-26T23:56:55.879Z,20.30
2023-04-26T23:59:24.271Z,20.60
